Terminal Aerodrome Forecast
Issued by NWS Twin Cities, MN

Home | Current Version | Previous Version | Text Only | Print | Product List | Glossary Off
Versions: 1 2 3 4 5 6 7 8 9 10 11 12 13 14 15 16 17 18 19 20 21 22 23 24 25 26 27 28 29 30 31

000
FTUS43 KMPX 042116 AAA
TAFMSP
TAF AMD
KMSP 042116Z 0421/0524 22007KT P6SM SCT014 OVC020
     FM050000 22006KT P6SM SKC
     FM050900 17004KT P6SM BKN150
     FM051500 14009KT P6SM OVC090
     FM051800 18013G22KT P6SM SCT035 OVC090=

USA.gov is the U.S. government's official web portal to all federal, state and local government web resources and services.